sensor_id;sensor_type;location;lat;lon;timestamp;P1;durP1;ratioP1;P2;durP2;ratioP2
70342;SDS011;57767;42.068;24.752;2022-09-16T00:00:55;10.70;;;3.33;;
70342;SDS011;57767;42.068;24.752;2022-09-16T00:01:56;11.07;;;2.80;;
70342;SDS011;57767;42.068;24.752;2022-09-16T00:02:58;13.45;;;3.03;;
70342;SDS011;57767;42.068;24.752;2022-09-16T00:04:00;5.78;;;2.47;;
70342;SDS011;57767;42.068;24.752;2022-09-16T00:05:03;11.98;;;3.17;;
70342;SDS011;57767;42.068;24.752;2022-09-16T00:06:05;10.07;;;3.05;;
70342;SDS011;57767;42.068;24.752;2022-09-16T00:07:07;10.60;;;3.28;;
70342;SDS011;57767;42.068;24.752;2022-09-16T00:08:09;14.65;;;3.20;;
70342;SDS011;57767;42.068;24.752;2022-09-16T00:09:11;11.43;;;3.00;;
70342;SDS011;57767;42.068;24.752;2022-09-16T00:10:13;8.15;;;2.53;;
70342;SDS011;57767;42.068;24.752;2022-09-16T00:11:15;13.57;;;2.67;;
70342;SDS011;57767;42.068;24.752;2022-09-16T00:12:17;10.95;;;3.05;;
70342;SDS011;57767;42.068;24.752;2022-09-16T00:13:19;7.82;;;3.00;;
70342;SDS011;57767;42.068;24.752;2022-09-16T00:14:21;10.70;;;2.97;;
70342;SDS011;57767;42.068;24.752;2022-09-16T00:15:23;9.18;;;2.65;;
70342;SDS011;57767;42.068;24.752;2022-09-16T00:16:25;9.10;;;3.00;;
70342;SDS011;57767;42.068;24.752;2022-09-16T00:17:28;10.00;;;3.13;;
70342;SDS011;57767;42.068;24.752;2022-09-16T00:18:31;7.28;;;2.53;;
70342;SDS011;57767;42.068;24.752;2022-09-16T00:19:33;11.68;;;2.85;;
70342;SDS011;57767;42.068;24.752;2022-09-16T00:20:35;10.13;;;2.67;;
70342;SDS011;57767;42.068;24.752;2022-09-16T00:21:36;8.77;;;3.17;;
70342;SDS011;57767;42.068;24.752;2022-09-16T00:22:38;8.77;;;2.85;;
70342;SDS011;57767;42.068;24.752;2022-09-16T00:23:40;11.68;;;2.67;;
70342;SDS011;57767;42.068;24.752;2022-09-16T00:24:42;8.93;;;2.88;;
70342;SDS011;57767;42.068;24.752;2022-09-16T00:25:48;9.57;;;2.90;;
70342;SDS011;57767;42.068;24.752;2022-09-16T00:26:51;20.13;;;3.63;;
70342;SDS011;57767;42.068;24.752;2022-09-16T00:27:53;11.15;;;3.03;;
70342;SDS011;57767;42.068;24.752;2022-09-16T00:28:55;7.53;;;2.50;;
70342;SDS011;57767;42.068;24.752;2022-09-16T00:29:57;8.98;;;2.72;;
70342;SDS011;57767;42.068;24.752;2022-09-16T00:30:59;9.02;;;3.10;;
70342;SDS011;57767;42.068;24.752;2022-09-16T00:32:02;13.48;;;3.00;;
70342;SDS011;57767;42.068;24.752;2022-09-16T00:33:04;9.45;;;2.97;;
70342;SDS011;57767;42.068;24.752;2022-09-16T00:34:05;8.10;;;2.70;;
70342;SDS011;57767;42.068;24.752;2022-09-16T00:35:07;11.95;;;2.50;;
70342;SDS011;57767;42.068;24.752;2022-09-16T00:36:11;6.85;;;2.85;;
70342;SDS011;57767;42.068;24.752;2022-09-16T00:37:14;10.73;;;2.90;;
70342;SDS011;57767;42.068;24.752;2022-09-16T00:38:16;9.55;;;2.72;;
70342;SDS011;57767;42.068;24.752;2022-09-16T00:39:18;5.93;;;2.15;;
70342;SDS011;57767;42.068;24.752;2022-09-16T00:40:19;12.32;;;3.40;;
70342;SDS011;57767;42.068;24.752;2022-09-16T00:41:31;9.65;;;2.65;;
70342;SDS011;57767;42.068;24.752;2022-09-16T00:42:37;8.77;;;2.40;;
70342;SDS011;57767;42.068;24.752;2022-09-16T00:43:59;8.75;;;2.40;;
70342;SDS011;57767;42.068;24.752;2022-09-16T00:45:05;12.35;;;2.85;;
70342;SDS011;57767;42.068;24.752;2022-09-16T00:46:19;10.18;;;2.25;;
70342;SDS011;57767;42.068;24.752;2022-09-16T00:47:27;12.50;;;2.35;;
70342;SDS011;57767;42.068;24.752;2022-09-16T00:48:40;6.32;;;2.10;;
70342;SDS011;57767;42.068;24.752;2022-09-16T00:49:42;9.48;;;3.03;;
70342;SDS011;57767;42.068;24.752;2022-09-16T00:50:46;6.93;;;2.22;;
70342;SDS011;57767;42.068;24.752;2022-09-16T00:52:04;9.98;;;2.95;;
70342;SDS011;57767;42.068;24.752;2022-09-16T00:53:08;6.20;;;2.53;;
70342;SDS011;57767;42.068;24.752;2022-09-16T00:54:15;7.70;;;2.63;;
70342;SDS011;57767;42.068;24.752;2022-09-16T00:55:23;8.40;;;2.10;;
70342;SDS011;57767;42.068;24.752;2022-09-16T00:56:29;9.32;;;2.47;;
70342;SDS011;57767;42.068;24.752;2022-09-16T00:57:34;8.10;;;2.25;;
70342;SDS011;57767;42.068;24.752;2022-09-16T00:58:40;10.55;;;2.67;;
70342;SDS011;57767;42.068;24.752;2022-09-16T01:00:04;10.40;;;2.50;;
70342;SDS011;57767;42.068;24.752;2022-09-16T01:01:08;10.73;;;2.38;;
70342;SDS011;57767;42.068;24.752;2022-09-16T01:02:12;6.18;;;2.45;;
70342;SDS011;57767;42.068;24.752;2022-09-16T01:03:17;9.75;;;2.83;;
70342;SDS011;57767;42.068;24.752;2022-09-16T01:04:26;9.27;;;2.45;;
70342;SDS011;57767;42.068;24.752;2022-09-16T01:05:31;12.45;;;2.53;;
70342;SDS011;57767;42.068;24.752;2022-09-16T01:06:35;8.00;;;2.67;;
70342;SDS011;57767;42.068;24.752;2022-09-16T01:08:47;7.10;;;2.50;;
70342;SDS011;57767;42.068;24.752;2022-09-16T01:09:50;14.63;;;2.88;;
70342;SDS011;57767;42.068;24.752;2022-09-16T01:10:52;10.50;;;2.45;;
70342;SDS011;57767;42.068;24.752;2022-09-16T01:11:54;7.45;;;2.55;;
70342;SDS011;57767;42.068;24.752;2022-09-16T01:12:57;10.15;;;2.72;;
70342;SDS011;57767;42.068;24.752;2022-09-16T01:14:04;9.82;;;2.50;;
70342;SDS011;57767;42.068;24.752;2022-09-16T01:16:14;9.07;;;2.53;;
70342;SDS011;57767;42.068;24.752;2022-09-16T01:17:02;14.75;;;2.58;;
70342;SDS011;57767;42.068;24.752;2022-09-16T01:18:09;5.70;;;2.83;;
70342;SDS011;57767;42.068;24.752;2022-09-16T01:21:49;4.82;;;2.20;;
70342;SDS011;57767;42.068;24.752;2022-09-16T01:27:20;9.20;;;2.78;;
70342;SDS011;57767;42.068;24.752;2022-09-16T01:28:36;11.07;;;2.53;;
70342;SDS011;57767;42.068;24.752;2022-09-16T01:32:39;15.40;;;2.47;;
70342;SDS011;57767;42.068;24.752;2022-09-16T01:38:33;10.00;;;2.28;;
70342;SDS011;57767;42.068;24.752;2022-09-16T01:39:43;5.68;;;2.60;;
70342;SDS011;57767;42.068;24.752;2022-09-16T01:42:46;7.82;;;1.98;;
70342;SDS011;57767;42.068;24.752;2022-09-16T01:44:59;11.95;;;2.50;;
70342;SDS011;57767;42.068;24.752;2022-09-16T01:47:33;8.30;;;2.60;;
70342;SDS011;57767;42.068;24.752;2022-09-16T01:51:04;10.35;;;2.70;;
70342;SDS011;57767;42.068;24.752;2022-09-16T01:53:17;11.20;;;2.58;;
70342;SDS011;57767;42.068;24.752;2022-09-16T01:54:39;12.13;;;2.80;;
70342;SDS011;57767;42.068;24.752;2022-09-16T01:57:15;9.50;;;2.70;;
70342;SDS011;57767;42.068;24.752;2022-09-16T01:58:22;9.52;;;2.58;;
70342;SDS011;57767;42.068;24.752;2022-09-16T01:59:51;7.28;;;2.15;;
70342;SDS011;57767;42.068;24.752;2022-09-16T02:01:02;10.63;;;2.08;;
70342;SDS011;57767;42.068;24.752;2022-09-16T02:02:12;8.90;;;2.30;;
70342;SDS011;57767;42.068;24.752;2022-09-16T02:03:40;9.90;;;2.20;;
70342;SDS011;57767;42.068;24.752;2022-09-16T02:04:49;15.98;;;2.50;;
70342;SDS011;57767;42.068;24.752;2022-09-16T02:05:58;7.82;;;2.25;;
70342;SDS011;57767;42.068;24.752;2022-09-16T02:07:04;10.65;;;2.10;;
70342;SDS011;57767;42.068;24.752;2022-09-16T02:08:11;12.43;;;2.35;;
70342;SDS011;57767;42.068;24.752;2022-09-16T02:09:18;10.60;;;2.40;;
70342;SDS011;57767;42.068;24.752;2022-09-16T02:10:28;8.57;;;2.22;;
70342;SDS011;57767;42.068;24.752;2022-09-16T02:11:34;12.20;;;2.17;;
70342;SDS011;57767;42.068;24.752;2022-09-16T02:12:39;6.82;;;2.25;;
70342;SDS011;57767;42.068;24.752;2022-09-16T02:13:54;8.50;;;2.00;;
70342;SDS011;57767;42.068;24.752;2022-09-16T02:15:09;8.35;;;1.90;;
70342;SDS011;57767;42.068;24.752;2022-09-16T02:16:15;7.75;;;1.80;;
70342;SDS011;57767;42.068;24.752;2022-09-16T02:17:22;9.00;;;2.15;;
70342;SDS011;57767;42.068;24.752;2022-09-16T02:18:28;10.50;;;2.08;;
70342;SDS011;57767;42.068;24.752;2022-09-16T02:19:36;12.25;;;2.17;;
70342;SDS011;57767;42.068;24.752;2022-09-16T02:20:43;11.35;;;2.78;;
70342;SDS011;57767;42.068;24.752;2022-09-16T02:21:48;13.23;;;2.30;;
70342;SDS011;57767;42.068;24.752;2022-09-16T02:23:04;9.30;;;2.47;;
70342;SDS011;57767;42.068;24.752;2022-09-16T02:24:11;9.85;;;2.28;;
70342;SDS011;57767;42.068;24.752;2022-09-16T02:25:17;6.90;;;2.20;;
70342;SDS011;57767;42.068;24.752;2022-09-16T02:26:20;12.05;;;2.55;;
70342;SDS011;57767;42.068;24.752;2022-09-16T02:27:27;9.73;;;2.38;;
70342;SDS011;57767;42.068;24.752;2022-09-16T02:28:34;11.98;;;2.22;;
70342;SDS011;57767;42.068;24.752;2022-09-16T02:29:41;12.77;;;2.92;;
70342;SDS011;57767;42.068;24.752;2022-09-16T02:30:56;11.40;;;2.20;;
70342;SDS011;57767;42.068;24.752;2022-09-16T02:32:01;11.00;;;2.33;;
70342;SDS011;57767;42.068;24.752;2022-09-16T02:33:06;11.00;;;2.50;;
70342;SDS011;57767;42.068;24.752;2022-09-16T02:34:12;12.00;;;2.15;;
70342;SDS011;57767;42.068;24.752;2022-09-16T02:35:17;8.15;;;2.17;;
70342;SDS011;57767;42.068;24.752;2022-09-16T02:36:22;11.13;;;2.17;;
70342;SDS011;57767;42.068;24.752;2022-09-16T02:37:31;7.30;;;2.50;;
70342;SDS011;57767;42.068;24.752;2022-09-16T02:38:46;14.50;;;2.67;;
70342;SDS011;57767;42.068;24.752;2022-09-16T02:39:54;7.25;;;2.40;;
70342;SDS011;57767;42.068;24.752;2022-09-16T02:41:02;6.55;;;2.25;;
70342;SDS011;57767;42.068;24.752;2022-09-16T02:42:04;11.43;;;2.22;;
70342;SDS011;57767;42.068;24.752;2022-09-16T02:43:08;5.53;;;2.10;;
70342;SDS011;57767;42.068;24.752;2022-09-16T02:44:10;8.48;;;2.47;;
70342;SDS011;57767;42.068;24.752;2022-09-16T02:45:12;10.23;;;2.38;;
70342;SDS011;57767;42.068;24.752;2022-09-16T02:50:16;7.38;;;2.08;;
70342;SDS011;57767;42.068;24.752;2022-09-16T02:52:51;7.88;;;2.22;;
70342;SDS011;57767;42.068;24.752;2022-09-16T02:56:58;14.00;;;2.63;;
70342;SDS011;57767;42.068;24.752;2022-09-16T02:58:00;7.43;;;2.10;;
70342;SDS011;57767;42.068;24.752;2022-09-16T02:59:02;8.07;;;2.28;;
70342;SDS011;57767;42.068;24.752;2022-09-16T03:00:06;10.88;;;2.28;;
70342;SDS011;57767;42.068;24.752;2022-09-16T03:01:09;8.40;;;2.30;;
70342;SDS011;57767;42.068;24.752;2022-09-16T03:02:13;13.35;;;2.35;;
70342;SDS011;57767;42.068;24.752;2022-09-16T03:03:15;9.32;;;2.47;;
70342;SDS011;57767;42.068;24.752;2022-09-16T03:04:18;8.73;;;2.50;;
70342;SDS011;57767;42.068;24.752;2022-09-16T03:05:26;16.05;;;2.78;;
70342;SDS011;57767;42.068;24.752;2022-09-16T03:06:28;10.32;;;2.97;;
70342;SDS011;57767;42.068;24.752;2022-09-16T03:07:36;8.77;;;2.28;;
70342;SDS011;57767;42.068;24.752;2022-09-16T03:08:41;11.45;;;2.53;;
70342;SDS011;57767;42.068;24.752;2022-09-16T03:09:45;10.00;;;2.28;;
70342;SDS011;57767;42.068;24.752;2022-09-16T03:10:49;6.72;;;2.25;;
70342;SDS011;57767;42.068;24.752;2022-09-16T03:12:02;7.68;;;2.60;;
70342;SDS011;57767;42.068;24.752;2022-09-16T03:13:08;8.13;;;2.42;;
70342;SDS011;57767;42.068;24.752;2022-09-16T03:14:26;10.77;;;2.33;;
70342;SDS011;57767;42.068;24.752;2022-09-16T03:18:16;6.22;;;2.33;;
70342;SDS011;57767;42.068;24.752;2022-09-16T03:22:34;13.07;;;3.13;;
70342;SDS011;57767;42.068;24.752;2022-09-16T03:23:55;8.70;;;2.45;;
70342;SDS011;57767;42.068;24.752;2022-09-16T03:27:36;8.82;;;2.60;;
70342;SDS011;57767;42.068;24.752;2022-09-16T03:30:05;19.83;;;2.67;;
70342;SDS011;57767;42.068;24.752;2022-09-16T03:31:13;15.68;;;3.05;;
70342;SDS011;57767;42.068;24.752;2022-09-16T03:35:46;12.15;;;2.20;;
70342;SDS011;57767;42.068;24.752;2022-09-16T03:37:01;11.73;;;2.67;;
70342;SDS011;57767;42.068;24.752;2022-09-16T03:38:06;8.18;;;2.17;;
70342;SDS011;57767;42.068;24.752;2022-09-16T03:39:09;10.88;;;2.13;;
70342;SDS011;57767;42.068;24.752;2022-09-16T03:40:12;11.18;;;2.38;;
70342;SDS011;57767;42.068;24.752;2022-09-16T03:41:17;7.30;;;2.28;;
70342;SDS011;57767;42.068;24.752;2022-09-16T03:42:20;11.32;;;2.70;;
70342;SDS011;57767;42.068;24.752;2022-09-16T03:43:22;8.57;;;2.38;;
70342;SDS011;57767;42.068;24.752;2022-09-16T03:44:34;13.23;;;2.35;;
70342;SDS011;57767;42.068;24.752;2022-09-16T03:45:37;14.05;;;2.20;;
70342;SDS011;57767;42.068;24.752;2022-09-16T03:46:43;13.65;;;2.55;;
70342;SDS011;57767;42.068;24.752;2022-09-16T03:47:45;13.77;;;2.70;;
70342;SDS011;57767;42.068;24.752;2022-09-16T03:48:48;14.38;;;2.63;;
70342;SDS011;57767;42.068;24.752;2022-09-16T03:49:50;10.82;;;2.40;;
70342;SDS011;57767;42.068;24.752;2022-09-16T03:50:51;13.13;;;2.28;;
70342;SDS011;57767;42.068;24.752;2022-09-16T03:51:53;11.82;;;2.42;;
70342;SDS011;57767;42.068;24.752;2022-09-16T03:52:55;12.00;;;2.50;;
70342;SDS011;57767;42.068;24.752;2022-09-16T03:53:56;4.47;;;1.85;;
70342;SDS011;57767;42.068;24.752;2022-09-16T03:54:58;11.20;;;2.38;;
70342;SDS011;57767;42.068;24.752;2022-09-16T03:56:00;18.58;;;2.60;;
70342;SDS011;57767;42.068;24.752;2022-09-16T03:57:02;15.98;;;2.55;;
70342;SDS011;57767;42.068;24.752;2022-09-16T03:58:04;9.77;;;2.20;;
70342;SDS011;57767;42.068;24.752;2022-09-16T03:59:06;11.23;;;2.30;;
70342;SDS011;57767;42.068;24.752;2022-09-16T04:00:08;12.73;;;2.50;;
70342;SDS011;57767;42.068;24.752;2022-09-16T04:01:10;9.73;;;2.28;;
70342;SDS011;57767;42.068;24.752;2022-09-16T04:02:12;16.75;;;2.50;;
70342;SDS011;57767;42.068;24.752;2022-09-16T04:03:13;14.57;;;2.90;;
70342;SDS011;57767;42.068;24.752;2022-09-16T04:04:15;38.67;;;3.53;;
70342;SDS011;57767;42.068;24.752;2022-09-16T04:05:17;23.98;;;3.15;;
70342;SDS011;57767;42.068;24.752;2022-09-16T04:06:19;10.95;;;1.92;;
70342;SDS011;57767;42.068;24.752;2022-09-16T04:07:21;10.27;;;2.30;;
70342;SDS011;57767;42.068;24.752;2022-09-16T04:08:22;13.82;;;2.60;;
70342;SDS011;57767;42.068;24.752;2022-09-16T04:09:24;19.35;;;3.08;;
70342;SDS011;57767;42.068;24.752;2022-09-16T04:10:26;9.73;;;2.58;;
70342;SDS011;57767;42.068;24.752;2022-09-16T04:11:28;14.00;;;2.50;;
70342;SDS011;57767;42.068;24.752;2022-09-16T04:12:32;13.93;;;2.80;;
70342;SDS011;57767;42.068;24.752;2022-09-16T04:13:34;11.32;;;2.47;;
70342;SDS011;57767;42.068;24.752;2022-09-16T04:14:36;14.85;;;3.22;;
70342;SDS011;57767;42.068;24.752;2022-09-16T04:15:38;16.02;;;3.13;;
70342;SDS011;57767;42.068;24.752;2022-09-16T04:16:40;12.73;;;2.50;;
70342;SDS011;57767;42.068;24.752;2022-09-16T04:17:45;9.65;;;2.80;;
70342;SDS011;57767;42.068;24.752;2022-09-16T04:18:47;11.70;;;2.72;;
70342;SDS011;57767;42.068;24.752;2022-09-16T04:19:49;14.43;;;3.03;;
70342;SDS011;57767;42.068;24.752;2022-09-16T04:20:56;9.35;;;2.60;;
70342;SDS011;57767;42.068;24.752;2022-09-16T04:21:59;20.27;;;3.15;;
70342;SDS011;57767;42.068;24.752;2022-09-16T04:23:01;11.00;;;2.50;;
70342;SDS011;57767;42.068;24.752;2022-09-16T04:24:03;16.13;;;2.97;;
70342;SDS011;57767;42.068;24.752;2022-09-16T04:25:09;18.73;;;3.50;;
70342;SDS011;57767;42.068;24.752;2022-09-16T04:26:11;14.70;;;2.75;;
70342;SDS011;57767;42.068;24.752;2022-09-16T04:27:13;14.88;;;2.72;;
70342;SDS011;57767;42.068;24.752;2022-09-16T04:28:14;11.30;;;2.53;;
70342;SDS011;57767;42.068;24.752;2022-09-16T04:29:16;17.17;;;2.67;;
70342;SDS011;57767;42.068;24.752;2022-09-16T04:30:18;19.77;;;3.42;;
70342;SDS011;57767;42.068;24.752;2022-09-16T04:31:20;22.20;;;3.50;;
70342;SDS011;57767;42.068;24.752;2022-09-16T04:32:22;15.40;;;3.45;;
70342;SDS011;57767;42.068;24.752;2022-09-16T04:33:26;12.13;;;2.35;;
70342;SDS011;57767;42.068;24.752;2022-09-16T04:34:29;16.88;;;3.13;;
70342;SDS011;57767;42.068;24.752;2022-09-16T04:35:32;11.10;;;3.20;;
70342;SDS011;57767;42.068;24.752;2022-09-16T04:36:34;14.43;;;2.38;;
70342;SDS011;57767;42.068;24.752;2022-09-16T04:37:36;11.10;;;2.00;;
70342;SDS011;57767;42.068;24.752;2022-09-16T04:38:38;15.93;;;3.08;;
70342;SDS011;57767;42.068;24.752;2022-09-16T04:39:41;20.42;;;3.47;;
70342;SDS011;57767;42.068;24.752;2022-09-16T04:40:43;8.93;;;2.78;;
70342;SDS011;57767;42.068;24.752;2022-09-16T04:41:45;15.27;;;2.90;;
70342;SDS011;57767;42.068;24.752;2022-09-16T04:42:50;16.27;;;2.55;;
70342;SDS011;57767;42.068;24.752;2022-09-16T04:43:53;13.13;;;3.25;;
70342;SDS011;57767;42.068;24.752;2022-09-16T04:44:58;23.35;;;3.28;;
70342;SDS011;57767;42.068;24.752;2022-09-16T04:46:00;13.43;;;3.00;;
70342;SDS011;57767;42.068;24.752;2022-09-16T04:47:03;15.13;;;3.95;;
70342;SDS011;57767;42.068;24.752;2022-09-16T04:48:04;14.50;;;3.50;;
70342;SDS011;57767;42.068;24.752;2022-09-16T04:49:06;17.70;;;3.50;;
70342;SDS011;57767;42.068;24.752;2022-09-16T04:50:08;16.60;;;3.67;;
70342;SDS011;57767;42.068;24.752;2022-09-16T04:51:11;15.60;;;3.65;;
70342;SDS011;57767;42.068;24.752;2022-09-16T04:52:13;13.80;;;3.75;;
70342;SDS011;57767;42.068;24.752;2022-09-16T04:53:15;13.90;;;4.28;;
70342;SDS011;57767;42.068;24.752;2022-09-16T04:54:17;27.70;;;5.18;;
70342;SDS011;57767;42.068;24.752;2022-09-16T04:55:19;22.70;;;4.18;;
70342;SDS011;57767;42.068;24.752;2022-09-16T04:56:25;27.25;;;4.75;;
70342;SDS011;57767;42.068;24.752;2022-09-16T04:57:29;20.70;;;3.95;;
70342;SDS011;57767;42.068;24.752;2022-09-16T04:58:32;28.13;;;4.20;;
70342;SDS011;57767;42.068;24.752;2022-09-16T04:59:34;24.65;;;4.20;;
70342;SDS011;57767;42.068;24.752;2022-09-16T05:00:36;17.48;;;4.38;;
70342;SDS011;57767;42.068;24.752;2022-09-16T05:01:38;22.10;;;3.70;;
70342;SDS011;57767;42.068;24.752;2022-09-16T05:02:42;23.08;;;4.07;;
70342;SDS011;57767;42.068;24.752;2022-09-16T05:03:46;18.67;;;3.92;;
70342;SDS011;57767;42.068;24.752;2022-09-16T05:04:52;20.77;;;3.97;;
70342;SDS011;57767;42.068;24.752;2022-09-16T05:06:02;26.90;;;4.10;;
70342;SDS011;57767;42.068;24.752;2022-09-16T05:07:05;27.92;;;4.05;;
70342;SDS011;57767;42.068;24.752;2022-09-16T05:08:07;17.38;;;3.78;;
70342;SDS011;57767;42.068;24.752;2022-09-16T05:09:09;30.85;;;4.35;;
70342;SDS011;57767;42.068;24.752;2022-09-16T05:10:12;21.92;;;4.00;;
70342;SDS011;57767;42.068;24.752;2022-09-16T05:11:21;29.38;;;3.90;;
70342;SDS011;57767;42.068;24.752;2022-09-16T05:12:24;45.00;;;5.78;;
70342;SDS011;57767;42.068;24.752;2022-09-16T05:13:26;41.30;;;4.63;;
70342;SDS011;57767;42.068;24.752;2022-09-16T05:14:28;24.35;;;3.75;;
70342;SDS011;57767;42.068;24.752;2022-09-16T05:15:30;26.48;;;3.92;;
70342;SDS011;57767;42.068;24.752;2022-09-16T05:16:31;11.48;;;3.05;;
70342;SDS011;57767;42.068;24.752;2022-09-16T05:17:33;16.20;;;3.75;;
70342;SDS011;57767;42.068;24.752;2022-09-16T05:18:52;23.27;;;3.30;;
70342;SDS011;57767;42.068;24.752;2022-09-16T05:19:56;21.67;;;3.35;;
70342;SDS011;57767;42.068;24.752;2022-09-16T05:20:59;11.90;;;3.05;;
70342;SDS011;57767;42.068;24.752;2022-09-16T05:22:01;13.52;;;3.45;;
70342;SDS011;57767;42.068;24.752;2022-09-16T05:23:07;11.82;;;2.90;;
70342;SDS011;57767;42.068;24.752;2022-09-16T05:24:10;12.45;;;3.50;;
70342;SDS011;57767;42.068;24.752;2022-09-16T05:25:13;13.35;;;3.35;;
70342;SDS011;57767;42.068;24.752;2022-09-16T05:26:19;12.75;;;3.22;;
70342;SDS011;57767;42.068;24.752;2022-09-16T05:27:22;10.35;;;3.15;;
70342;SDS011;57767;42.068;24.752;2022-09-16T05:28:24;10.10;;;3.22;;
70342;SDS011;57767;42.068;24.752;2022-09-16T05:29:26;12.15;;;3.22;;
70342;SDS011;57767;42.068;24.752;2022-09-16T05:30:28;12.90;;;3.80;;
70342;SDS011;57767;42.068;24.752;2022-09-16T05:31:30;9.07;;;3.33;;
70342;SDS011;57767;42.068;24.752;2022-09-16T05:32:33;15.88;;;3.47;;
70342;SDS011;57767;42.068;24.752;2022-09-16T05:33:35;10.70;;;3.63;;
70342;SDS011;57767;42.068;24.752;2022-09-16T05:34:37;11.43;;;3.17;;
70342;SDS011;57767;42.068;24.752;2022-09-16T05:35:38;13.25;;;3.03;;
70342;SDS011;57767;42.068;24.752;2022-09-16T05:36:42;13.10;;;3.20;;
70342;SDS011;57767;42.068;24.752;2022-09-16T05:37:48;13.75;;;2.95;;
70342;SDS011;57767;42.068;24.752;2022-09-16T05:38:50;13.10;;;3.30;;
70342;SDS011;57767;42.068;24.752;2022-09-16T05:40:12;15.80;;;3.60;;
70342;SDS011;57767;42.068;24.752;2022-09-16T05:41:14;20.63;;;3.60;;
70342;SDS011;57767;42.068;24.752;2022-09-16T05:42:16;13.50;;;3.50;;
70342;SDS011;57767;42.068;24.752;2022-09-16T05:43:17;12.45;;;3.10;;
70342;SDS011;57767;42.068;24.752;2022-09-16T05:44:19;10.00;;;3.65;;
70342;SDS011;57767;42.068;24.752;2022-09-16T05:45:21;13.60;;;3.05;;
70342;SDS011;57767;42.068;24.752;2022-09-16T05:46:29;17.45;;;3.63;;
70342;SDS011;57767;42.068;24.752;2022-09-16T05:47:31;11.10;;;3.60;;
70342;SDS011;57767;42.068;24.752;2022-09-16T05:48:33;11.38;;;2.92;;
70342;SDS011;57767;42.068;24.752;2022-09-16T05:49:35;17.35;;;3.83;;
70342;SDS011;57767;42.068;24.752;2022-09-16T05:50:37;10.68;;;3.30;;
70342;SDS011;57767;42.068;24.752;2022-09-16T05:51:39;11.25;;;2.97;;
70342;SDS011;57767;42.068;24.752;2022-09-16T05:52:44;15.23;;;3.25;;
70342;SDS011;57767;42.068;24.752;2022-09-16T05:53:46;14.40;;;3.30;;
70342;SDS011;57767;42.068;24.752;2022-09-16T05:54:49;13.60;;;3.03;;
70342;SDS011;57767;42.068;24.752;2022-09-16T05:57:06;17.58;;;3.13;;
70342;SDS011;57767;42.068;24.752;2022-09-16T05:58:07;13.10;;;3.83;;
70342;SDS011;57767;42.068;24.752;2022-09-16T05:59:10;16.90;;;3.53;;
70342;SDS011;57767;42.068;24.752;2022-09-16T06:00:12;12.93;;;3.65;;
70342;SDS011;57767;42.068;24.752;2022-09-16T06:01:16;13.63;;;3.53;;
70342;SDS011;57767;42.068;24.752;2022-09-16T06:02:19;14.18;;;4.13;;
70342;SDS011;57767;42.068;24.752;2022-09-16T06:03:21;13.20;;;3.70;;
70342;SDS011;57767;42.068;24.752;2022-09-16T06:04:23;17.05;;;3.72;;
70342;SDS011;57767;42.068;24.752;2022-09-16T06:05:25;15.75;;;4.00;;
70342;SDS011;57767;42.068;24.752;2022-09-16T06:06:36;23.60;;;3.75;;
70342;SDS011;57767;42.068;24.752;2022-09-16T06:07:43;16.40;;;3.38;;
70342;SDS011;57767;42.068;24.752;2022-09-16T06:08:44;23.42;;;3.67;;
70342;SDS011;57767;42.068;24.752;2022-09-16T06:09:46;18.27;;;3.72;;
70342;SDS011;57767;42.068;24.752;2022-09-16T06:10:49;20.48;;;4.03;;
70342;SDS011;57767;42.068;24.752;2022-09-16T06:11:51;15.27;;;4.05;;
70342;SDS011;57767;42.068;24.752;2022-09-16T06:13:02;21.85;;;4.07;;
70342;SDS011;57767;42.068;24.752;2022-09-16T06:14:04;14.00;;;3.90;;
70342;SDS011;57767;42.068;24.752;2022-09-16T06:15:06;13.82;;;3.35;;
70342;SDS011;57767;42.068;24.752;2022-09-16T06:16:09;18.77;;;4.22;;
70342;SDS011;57767;42.068;24.752;2022-09-16T06:17:11;13.40;;;4.30;;
70342;SDS011;57767;42.068;24.752;2022-09-16T06:18:12;14.20;;;4.03;;
70342;SDS011;57767;42.068;24.752;2022-09-16T06:19:16;13.02;;;4.75;;
70342;SDS011;57767;42.068;24.752;2022-09-16T06:20:18;16.63;;;3.97;;
70342;SDS011;57767;42.068;24.752;2022-09-16T06:21:21;16.88;;;5.15;;
70342;SDS011;57767;42.068;24.752;2022-09-16T06:22:23;17.50;;;5.13;;
70342;SDS011;57767;42.068;24.752;2022-09-16T06:23:25;11.93;;;4.70;;
70342;SDS011;57767;42.068;24.752;2022-09-16T06:24:27;17.92;;;4.65;;
70342;SDS011;57767;42.068;24.752;2022-09-16T06:25:29;17.40;;;4.50;;
70342;SDS011;57767;42.068;24.752;2022-09-16T06:26:30;19.67;;;4.38;;
70342;SDS011;57767;42.068;24.752;2022-09-16T06:27:32;13.27;;;4.10;;
70342;SDS011;57767;42.068;24.752;2022-09-16T06:28:34;12.98;;;3.97;;
70342;SDS011;57767;42.068;24.752;2022-09-16T06:29:36;12.55;;;3.45;;
70342;SDS011;57767;42.068;24.752;2022-09-16T06:30:38;10.35;;;4.07;;
70342;SDS011;57767;42.068;24.752;2022-09-16T06:31:40;10.25;;;3.35;;
70342;SDS011;57767;42.068;24.752;2022-09-16T06:32:43;15.15;;;4.05;;
70342;SDS011;57767;42.068;24.752;2022-09-16T06:33:44;15.45;;;3.75;;
70342;SDS011;57767;42.068;24.752;2022-09-16T06:34:46;12.20;;;3.83;;
70342;SDS011;57767;42.068;24.752;2022-09-16T06:35:48;19.52;;;4.18;;
70342;SDS011;57767;42.068;24.752;2022-09-16T06:36:51;22.75;;;4.25;;
70342;SDS011;57767;42.068;24.752;2022-09-16T06:37:53;28.98;;;5.13;;
70342;SDS011;57767;42.068;24.752;2022-09-16T06:38:55;15.93;;;3.83;;
70342;SDS011;57767;42.068;24.752;2022-09-16T06:39:57;13.20;;;4.50;;
70342;SDS011;57767;42.068;24.752;2022-09-16T06:41:03;13.35;;;3.70;;
70342;SDS011;57767;42.068;24.752;2022-09-16T06:42:06;17.30;;;5.03;;
70342;SDS011;57767;42.068;24.752;2022-09-16T06:43:09;14.98;;;3.65;;
70342;SDS011;57767;42.068;24.752;2022-09-16T06:44:10;14.88;;;4.18;;
70342;SDS011;57767;42.068;24.752;2022-09-16T06:45:12;11.48;;;3.65;;
70342;SDS011;57767;42.068;24.752;2022-09-16T06:46:15;15.60;;;3.80;;
70342;SDS011;57767;42.068;24.752;2022-09-16T06:47:23;13.90;;;3.88;;
70342;SDS011;57767;42.068;24.752;2022-09-16T06:48:25;15.40;;;4.40;;
70342;SDS011;57767;42.068;24.752;2022-09-16T06:49:28;21.55;;;4.60;;
70342;SDS011;57767;42.068;24.752;2022-09-16T06:50:29;19.45;;;4.38;;
70342;SDS011;57767;42.068;24.752;2022-09-16T06:51:32;14.20;;;4.00;;
70342;SDS011;57767;42.068;24.752;2022-09-16T06:52:35;13.65;;;4.03;;
70342;SDS011;57767;42.068;24.752;2022-09-16T06:53:37;12.18;;;3.80;;
70342;SDS011;57767;42.068;24.752;2022-09-16T06:54:39;14.50;;;4.43;;
70342;SDS011;57767;42.068;24.752;2022-09-16T06:55:41;17.10;;;4.50;;
70342;SDS011;57767;42.068;24.752;2022-09-16T06:56:43;14.75;;;4.22;;
70342;SDS011;57767;42.068;24.752;2022-09-16T06:57:44;14.70;;;4.15;;
70342;SDS011;57767;42.068;24.752;2022-09-16T06:58:47;17.48;;;4.20;;
70342;SDS011;57767;42.068;24.752;2022-09-16T06:59:50;14.50;;;3.83;;
70342;SDS011;57767;42.068;24.752;2022-09-16T07:00:53;16.48;;;4.53;;
70342;SDS011;57767;42.068;24.752;2022-09-16T07:01:55;16.83;;;3.90;;
70342;SDS011;57767;42.068;24.752;2022-09-16T07:02:57;15.48;;;4.35;;
70342;SDS011;57767;42.068;24.752;2022-09-16T07:04:03;12.32;;;4.07;;
70342;SDS011;57767;42.068;24.752;2022-09-16T07:05:07;14.32;;;3.83;;
70342;SDS011;57767;42.068;24.752;2022-09-16T07:06:10;16.15;;;4.20;;
70342;SDS011;57767;42.068;24.752;2022-09-16T07:07:13;16.80;;;4.13;;
70342;SDS011;57767;42.068;24.752;2022-09-16T07:08:15;18.90;;;4.47;;